createdAt,value
2019-03-10T00:02:11.040Z,4.10
2019-03-10T00:07:02.659Z,4.00
2019-03-10T00:11:54.793Z,4.00
2019-03-10T00:16:47.081Z,3.60
2019-03-10T00:21:39.228Z,3.70
2019-03-10T00:26:31.450Z,6.10
2019-03-10T00:31:23.487Z,8.10
2019-03-10T00:36:15.439Z,4.10
2019-03-10T00:41:10.971Z,4.10
2019-03-10T00:46:02.437Z,3.80
2019-03-10T00:50:54.321Z,4.40
2019-03-10T00:55:46.356Z,3.20
2019-03-10T01:00:38.883Z,3.10
2019-03-10T01:05:31.000Z,4.50
2019-03-10T01:10:23.358Z,3.80
2019-03-10T01:15:16.694Z,4.90
2019-03-10T01:20:08.393Z,3.20
2019-03-10T01:25:00.734Z,3.90
2019-03-10T01:29:52.689Z,5.40
2019-03-10T01:34:44.826Z,7.00
2019-03-10T01:39:36.791Z,5.80
2019-03-10T01:44:28.476Z,5.20
2019-03-10T01:49:20.488Z,3.30
2019-03-10T01:54:12.780Z,3.40
2019-03-10T01:59:05.276Z,4.20
2019-03-10T02:03:56.985Z,4.00
2019-03-10T02:08:48.909Z,4.30
2019-03-10T02:13:41.031Z,4.30
2019-03-10T02:18:33.053Z,3.30
2019-03-10T02:23:25.050Z,5.10
2019-03-10T02:28:17.087Z,3.50
2019-03-10T02:33:09.138Z,4.40
2019-03-10T02:38:01.179Z,4.40
2019-03-10T02:42:53.268Z,4.10
2019-03-10T02:47:45.077Z,4.50
2019-03-10T02:52:37.988Z,5.20
2019-03-10T02:57:29.754Z,4.40
2019-03-10T03:02:22.626Z,4.90
2019-03-10T03:07:14.459Z,5.40
2019-03-10T03:12:06.362Z,5.70
2019-03-10T03:16:58.408Z,3.20
2019-03-10T03:21:50.445Z,3.70
2019-03-10T03:26:42.397Z,5.40
2019-03-10T03:31:34.761Z,4.00
2019-03-10T03:36:26.765Z,3.10
2019-03-10T03:41:18.862Z,3.70
2019-03-10T03:46:11.561Z,4.30
2019-03-10T03:51:03.437Z,3.30
2019-03-10T03:55:55.371Z,3.10
2019-03-10T04:00:47.222Z,2.90
2019-03-10T04:05:39.226Z,4.10
2019-03-10T04:10:31.036Z,2.00
2019-03-10T04:15:23.194Z,2.50
2019-03-10T04:20:15.156Z,2.90
2019-03-10T04:25:07.324Z,2.80
2019-03-10T04:29:59.153Z,3.30
2019-03-10T04:34:51.158Z,4.70
2019-03-10T04:39:43.000Z,3.50
2019-03-10T04:44:36.766Z,3.10
2019-03-10T04:49:27.967Z,3.50
2019-03-10T04:54:20.097Z,3.10
2019-03-10T04:59:12.157Z,2.60
2019-03-10T05:04:03.631Z,5.60
2019-03-10T05:08:53.553Z,2.90
2019-03-10T05:13:45.712Z,2.40
2019-03-10T05:18:37.780Z,3.00
2019-03-10T05:23:29.857Z,3.00
2019-03-10T05:28:21.789Z,2.80
2019-03-10T05:33:13.569Z,3.00
2019-03-10T05:38:05.613Z,3.10
2019-03-10T05:42:57.537Z,1.90
2019-03-10T05:47:49.324Z,2.30
2019-03-10T05:52:41.373Z,2.00
2019-03-10T05:57:33.106Z,2.10
2019-03-10T06:02:27.051Z,3.20
2019-03-10T06:07:18.214Z,5.30
2019-03-10T06:12:10.026Z,4.10
2019-03-10T06:17:01.928Z,7.20
2019-03-10T06:21:53.909Z,3.70
2019-03-10T06:26:48.050Z,2.70
2019-03-10T06:31:39.562Z,2.20
2019-03-10T06:36:31.394Z,2.30
2019-03-10T06:41:23.187Z,2.10
2019-03-10T13:09:47.981Z,4.10
2019-03-10T13:35:20.092Z,2.80
2019-03-10T13:40:12.849Z,2.10
2019-03-10T13:45:04.999Z,1.90
2019-03-10T13:49:57.468Z,2.00
2019-03-10T13:54:47.301Z,1.50
2019-03-10T13:59:39.433Z,1.80
2019-03-10T14:04:31.515Z,1.50
2019-03-10T14:09:23.705Z,0.70
2019-03-10T14:14:15.727Z,1.00
2019-03-10T14:19:07.868Z,1.40
2019-03-10T14:24:00.126Z,0.80
2019-03-10T14:28:51.254Z,1.20
2019-03-10T14:33:43.026Z,1.00
2019-03-10T14:38:34.731Z,1.80
2019-03-10T14:43:26.507Z,1.20
2019-03-10T14:48:18.298Z,1.70
2019-03-10T14:53:10.219Z,0.70
2019-03-10T14:58:02.297Z,1.70
2019-03-10T15:02:54.450Z,2.80
2019-03-10T15:07:46.421Z,0.60
2019-03-10T15:12:38.357Z,1.10
2019-03-10T15:17:30.289Z,0.80
2019-03-10T15:22:22.103Z,0.50
2019-03-10T15:27:23.140Z,0.90
2019-03-10T15:32:13.865Z,0.90
2019-03-10T15:37:06.229Z,0.20
2019-03-10T15:41:58.318Z,0.40
2019-03-10T15:46:50.054Z,0.40
2019-03-10T15:51:41.892Z,0.40
2019-03-10T15:56:33.717Z,0.60
2019-03-10T16:01:25.781Z,0.80
2019-03-10T16:06:17.990Z,0.40
2019-03-10T16:11:09.777Z,0.60
2019-03-10T16:16:03.871Z,0.50
2019-03-10T16:20:55.059Z,0.20
2019-03-10T16:25:46.870Z,0.70
2019-03-10T16:30:38.493Z,0.20
2019-03-10T16:35:30.294Z,0.40
2019-03-10T16:40:22.319Z,0.00
2019-03-10T16:45:14.126Z,0.40
2019-03-10T16:50:05.823Z,0.10
2019-03-10T16:54:57.537Z,0.20
2019-03-10T16:59:49.133Z,0.10
2019-03-10T17:04:40.610Z,0.30
2019-03-10T17:09:32.419Z,0.40
2019-03-10T17:14:24.298Z,1.40
2019-03-10T17:19:18.432Z,0.90
2019-03-10T17:24:10.026Z,0.70
2019-03-10T17:29:01.927Z,1.10
2019-03-10T17:33:53.514Z,0.70
2019-03-10T17:38:45.358Z,0.70
2019-03-10T17:43:36.991Z,0.60
2019-03-10T17:48:28.895Z,1.00
2019-03-10T17:53:21.107Z,1.20
2019-03-10T17:58:13.304Z,0.70
2019-03-10T18:03:05.370Z,1.40
2019-03-10T18:07:57.275Z,1.50
2019-03-10T18:12:49.349Z,1.10
2019-03-10T18:17:41.443Z,1.40
2019-03-10T18:22:33.332Z,1.20
2019-03-10T18:27:25.414Z,0.80
2019-03-10T18:32:17.926Z,1.50
2019-03-10T18:37:09.670Z,1.70
2019-03-10T18:42:01.575Z,0.80
2019-03-10T18:46:53.424Z,0.60
2019-03-10T18:51:45.276Z,1.50
2019-03-10T18:56:37.339Z,1.00
2019-03-10T19:01:30.934Z,1.00
2019-03-10T19:06:22.607Z,1.20
2019-03-10T19:11:14.415Z,0.90
2019-03-10T19:16:06.304Z,3.70
2019-03-10T19:21:00.397Z,0.70
2019-03-10T19:25:51.787Z,0.70
2019-03-10T19:30:43.668Z,1.40
2019-03-10T19:35:35.749Z,1.00
2019-03-10T19:40:27.694Z,1.00
2019-03-10T19:45:19.754Z,0.70
2019-03-10T19:50:11.700Z,1.00
2019-03-10T19:55:03.577Z,0.80
2019-03-10T19:59:55.382Z,0.20
2019-03-10T20:04:46.649Z,0.60
2019-03-10T20:09:37.956Z,0.50
2019-03-10T20:14:29.577Z,1.00
2019-03-10T20:19:21.026Z,0.80
2019-03-10T20:24:12.574Z,1.50
2019-03-10T20:29:04.200Z,0.70
2019-03-10T20:33:56.175Z,1.40
2019-03-10T20:38:47.932Z,1.10
2019-03-10T20:43:39.667Z,1.50
2019-03-10T20:48:31.379Z,2.80
2019-03-10T20:53:25.279Z,3.30
2019-03-10T20:58:17.587Z,3.70
2019-03-10T21:03:09.454Z,2.90
2019-03-10T21:08:01.215Z,4.80
2019-03-10T21:12:53.310Z,6.10
2019-03-10T21:17:45.026Z,5.60
2019-03-10T21:22:37.170Z,3.40
2019-03-10T21:27:29.049Z,7.10
2019-03-10T21:32:21.171Z,6.70
2019-03-10T21:37:13.195Z,5.50
2019-03-10T21:42:05.790Z,3.10
2019-03-10T21:46:59.375Z,4.20
2019-03-10T21:51:50.802Z,4.70
2019-03-10T21:56:42.648Z,4.50
2019-03-10T22:01:36.559Z,6.50
2019-03-10T22:06:29.873Z,4.80
2019-03-10T22:11:21.198Z,1.50
2019-03-10T22:16:13.305Z,2.60
2019-03-10T22:21:05.095Z,1.20
2019-03-10T22:25:56.722Z,1.60
2019-03-10T22:30:48.476Z,2.00
2019-03-10T22:35:42.455Z,1.70
2019-03-10T22:40:33.650Z,1.70
2019-03-10T22:45:25.710Z,2.20
2019-03-10T22:50:17.610Z,4.00
2019-03-10T22:55:09.701Z,5.80
2019-03-10T23:00:01.715Z,5.20
2019-03-10T23:04:53.691Z,7.90
2019-03-10T23:09:45.822Z,7.10
2019-03-10T23:14:37.747Z,2.50
2019-03-10T23:19:29.654Z,1.60
2019-03-10T23:24:21.582Z,1.80
2019-03-10T23:29:13.389Z,1.50
2019-03-10T23:34:05.205Z,1.20
2019-03-10T23:38:56.965Z,0.90
2019-03-10T23:43:48.898Z,1.90
2019-03-10T23:48:40.635Z,1.70
2019-03-10T23:53:32.693Z,1.40
2019-03-10T23:58:26.401Z,1.60
